createdAt,value
2023-03-12T00:00:50.474Z,7.10
2023-03-12T00:03:19.263Z,5.47
2023-03-12T00:05:47.276Z,5.33
2023-03-12T00:08:15.283Z,4.47
2023-03-12T00:10:43.571Z,2.47
2023-03-12T00:13:13.042Z,5.37
2023-03-12T00:15:41.219Z,3.23
2023-03-12T00:18:09.279Z,7.63
2023-03-12T00:20:37.406Z,5.37
2023-03-12T00:23:05.746Z,3.43
2023-03-12T00:25:33.707Z,4.37
2023-03-12T00:28:01.868Z,7.27
2023-03-12T00:30:32.290Z,5.63
2023-03-12T00:33:00.352Z,5.33
2023-03-12T00:35:28.517Z,5.73
2023-03-12T00:37:56.557Z,9.93
2023-03-12T00:40:24.684Z,5.00
2023-03-12T00:42:52.896Z,4.73
2023-03-12T00:45:21.135Z,5.37
2023-03-12T00:47:50.569Z,5.77
2023-03-12T00:50:19.080Z,6.87
2023-03-12T00:52:47.281Z,6.07
2023-03-12T00:55:15.288Z,5.33
2023-03-12T00:57:43.275Z,4.33
2023-03-12T01:00:13.503Z,6.27
2023-03-12T01:02:42.658Z,5.13
2023-03-12T01:05:14.197Z,7.13
2023-03-12T01:07:42.263Z,4.13
2023-03-12T01:10:13.250Z,6.50
2023-03-12T01:12:41.267Z,4.80
2023-03-12T01:15:11.054Z,5.43
2023-03-12T01:17:39.005Z,5.67
2023-03-12T01:20:08.484Z,6.57
2023-03-12T01:22:38.554Z,6.77
2023-03-12T01:25:07.856Z,5.57
2023-03-12T01:27:35.812Z,7.60
2023-03-12T01:30:04.281Z,5.00
2023-03-12T01:32:32.539Z,4.27
2023-03-12T01:35:01.276Z,4.80
2023-03-12T01:37:29.583Z,3.87
2023-03-12T01:39:58.882Z,6.37
2023-03-12T01:42:27.107Z,5.03
2023-03-12T01:44:56.979Z,5.80
2023-03-12T01:47:25.265Z,6.50
2023-03-12T01:49:55.508Z,4.93
2023-03-12T01:52:26.182Z,4.37
2023-03-12T01:54:57.665Z,3.80
2023-03-12T01:57:31.618Z,4.40
2023-03-12T02:00:04.793Z,3.97
2023-03-12T02:02:33.287Z,6.37
2023-03-12T02:05:12.953Z,2.97
2023-03-12T02:07:40.924Z,4.77
2023-03-12T02:10:09.992Z,4.37
2023-03-12T02:12:39.521Z,5.37
2023-03-12T02:15:09.226Z,4.07
2023-03-12T02:17:38.064Z,3.53
2023-03-12T02:20:14.131Z,4.80
2023-03-12T02:22:47.478Z,5.10
2023-03-12T02:25:30.822Z,4.70
2023-03-12T02:28:00.120Z,9.10
2023-03-12T02:30:31.195Z,7.33
2023-03-12T02:33:02.929Z,6.30
2023-03-12T02:35:30.964Z,4.70
2023-03-12T02:37:59.438Z,9.70
2023-03-12T02:40:32.927Z,5.30
2023-03-12T02:43:01.962Z,6.13
2023-03-12T02:45:30.628Z,4.90
2023-03-12T02:47:58.815Z,4.67
2023-03-12T02:50:26.819Z,6.60
2023-03-12T02:52:54.863Z,4.87
2023-03-12T02:55:23.023Z,8.47
2023-03-12T02:57:52.384Z,4.97
2023-03-12T03:00:21.533Z,4.00
2023-03-12T03:02:49.514Z,2.90
2023-03-12T03:05:17.695Z,7.40
2023-03-12T03:07:45.658Z,2.77
2023-03-12T03:10:15.610Z,3.47
2023-03-12T03:12:43.817Z,3.50
2023-03-12T03:15:13.387Z,2.47
2023-03-12T03:17:41.666Z,3.77
2023-03-12T03:20:11.904Z,5.27
2023-03-12T03:22:40.619Z,3.10
2023-03-12T03:25:10.766Z,3.23
2023-03-12T03:27:38.888Z,3.83
2023-03-12T03:30:08.686Z,3.37
2023-03-12T03:32:39.237Z,4.33
2023-03-12T03:35:08.037Z,3.27
2023-03-12T03:37:36.011Z,4.77
2023-03-12T03:40:04.673Z,4.47
2023-03-12T03:42:32.947Z,4.67
2023-03-12T03:45:01.160Z,3.60
2023-03-12T03:47:29.170Z,2.80
2023-03-12T03:49:58.680Z,3.13
2023-03-12T03:52:26.703Z,4.93
2023-03-12T03:54:54.822Z,3.20
2023-03-12T03:57:23.006Z,5.60
2023-03-12T03:59:51.401Z,2.47
2023-03-12T04:02:19.809Z,2.17
2023-03-12T04:04:47.965Z,4.03
2023-03-12T04:07:17.561Z,4.30
2023-03-12T04:09:46.133Z,5.00
2023-03-12T04:12:14.333Z,1.93
2023-03-12T04:14:42.936Z,2.10
2023-03-12T04:17:11.179Z,3.80
2023-03-12T04:19:39.562Z,1.80
2023-03-12T04:22:07.639Z,1.83
2023-03-12T04:24:37.153Z,2.20
2023-03-12T04:27:05.922Z,2.47
2023-03-12T04:29:34.254Z,2.40
2023-03-12T04:32:02.260Z,3.87
2023-03-12T04:34:30.236Z,3.93
2023-03-12T04:36:58.354Z,1.80
2023-03-12T04:39:26.446Z,1.83
2023-03-12T04:41:56.110Z,1.93
2023-03-12T04:44:24.376Z,1.90
2023-03-12T04:46:52.479Z,1.50
2023-03-12T04:49:20.596Z,2.70
2023-03-12T04:51:48.657Z,3.73
2023-03-12T04:54:16.707Z,2.90
2023-03-12T04:56:45.223Z,2.00
2023-03-12T04:59:14.954Z,2.23
2023-03-12T05:01:43.372Z,3.23
2023-03-12T05:04:11.422Z,4.03
2023-03-12T05:06:39.544Z,2.33
2023-03-12T05:09:08.599Z,2.23
2023-03-12T05:11:39.196Z,2.40
2023-03-12T05:14:08.008Z,4.63
2023-03-12T05:16:37.541Z,2.80
2023-03-12T05:19:06.158Z,2.10
2023-03-12T05:21:34.578Z,2.60
2023-03-12T05:24:02.938Z,3.20
2023-03-12T05:26:33.205Z,4.00
2023-03-12T05:29:01.930Z,2.87
2023-03-12T05:31:33.151Z,2.47
2023-03-12T05:34:03.036Z,6.13
2023-03-12T05:36:31.200Z,2.20
2023-03-12T05:38:59.446Z,3.93
2023-03-12T05:41:29.514Z,4.33
2023-03-12T05:43:58.644Z,2.33
2023-03-12T05:46:27.956Z,4.83
2023-03-12T05:48:56.082Z,2.40
2023-03-12T05:51:25.738Z,2.03
2023-03-12T05:53:53.844Z,3.50
2023-03-12T05:56:22.010Z,1.77
2023-03-12T05:58:50.945Z,2.10
2023-03-12T06:01:21.569Z,4.37
2023-03-12T06:03:49.964Z,2.20
2023-03-12T06:06:18.982Z,5.00
2023-03-12T06:08:48.602Z,2.20
2023-03-12T06:11:16.909Z,3.13
2023-03-12T06:13:45.033Z,3.70
2023-03-12T06:16:18.896Z,3.33
2023-03-12T06:18:47.019Z,9.30
2023-03-12T06:21:17.551Z,3.03
2023-03-12T06:23:46.543Z,3.43
2023-03-12T06:26:17.642Z,3.13
2023-03-12T06:28:46.906Z,3.20
2023-03-12T06:31:15.372Z,2.40
2023-03-12T06:33:43.715Z,2.90
2023-03-12T06:36:12.816Z,3.00
2023-03-12T06:38:42.068Z,3.67
2023-03-12T06:41:12.553Z,2.20
2023-03-12T06:43:42.465Z,2.10
2023-03-12T06:46:14.320Z,1.57
2023-03-12T06:48:42.445Z,4.00
2023-03-12T06:51:11.969Z,3.80
2023-03-12T06:53:42.386Z,2.37
2023-03-12T06:56:10.914Z,2.27
2023-03-12T06:58:39.700Z,2.30
2023-03-12T07:01:10.084Z,2.30
2023-03-12T07:03:38.102Z,1.90
2023-03-12T07:06:06.852Z,2.30
2023-03-12T07:08:35.065Z,3.23
2023-03-12T07:11:03.766Z,4.80
2023-03-12T07:13:32.133Z,4.40
2023-03-12T07:16:00.205Z,1.40
2023-03-12T07:18:29.712Z,5.23
2023-03-12T07:20:57.759Z,3.77
2023-03-12T07:23:25.784Z,5.30
2023-03-12T07:25:54.418Z,2.23
2023-03-12T07:28:22.813Z,3.03
2023-03-12T07:30:51.437Z,1.80
2023-03-12T07:33:21.097Z,1.70
2023-03-12T07:35:51.973Z,2.83
2023-03-12T07:38:20.882Z,4.10
2023-03-12T07:40:52.002Z,3.07
2023-03-12T07:43:21.649Z,3.83
2023-03-12T07:45:49.930Z,2.17
2023-03-12T07:48:19.898Z,3.03
2023-03-12T07:50:48.740Z,4.57
2023-03-12T07:53:18.717Z,4.30
2023-03-12T07:55:48.298Z,1.83
2023-03-12T07:58:16.707Z,1.97
2023-03-12T08:00:45.094Z,2.17
2023-03-12T08:03:13.420Z,2.30
2023-03-12T08:05:41.875Z,4.63
2023-03-12T08:08:10.674Z,2.53
2023-03-12T08:10:40.135Z,3.30
2023-03-12T08:13:08.128Z,2.37
2023-03-12T08:15:36.139Z,5.27
2023-03-12T08:18:04.344Z,1.77
2023-03-12T08:20:32.592Z,4.17
2023-03-12T08:23:00.581Z,4.60
2023-03-12T08:25:28.966Z,4.23
2023-03-12T08:27:58.285Z,1.70
2023-03-12T08:30:29.092Z,5.27
2023-03-12T08:32:58.380Z,5.33
2023-03-12T08:35:26.421Z,4.87
2023-03-12T08:37:54.592Z,2.57
2023-03-12T08:40:22.684Z,7.30
2023-03-12T08:42:50.870Z,3.03
2023-03-12T08:45:20.489Z,4.93
2023-03-12T08:47:48.451Z,2.43
2023-03-12T08:50:17.913Z,2.47
2023-03-12T08:52:45.964Z,2.33
2023-03-12T08:55:14.096Z,2.23
2023-03-12T08:57:42.532Z,4.30
2023-03-12T09:00:15.096Z,3.40
2023-03-12T09:02:46.216Z,5.43
2023-03-12T09:05:14.776Z,8.00
2023-03-12T09:07:43.439Z,2.10
2023-03-12T09:10:12.444Z,3.73
2023-03-12T09:12:40.841Z,3.60
2023-03-12T09:15:10.281Z,5.43
2023-03-12T09:17:38.871Z,2.63
2023-03-12T09:20:14.020Z,4.80
2023-03-12T09:22:42.661Z,3.70
2023-03-12T09:25:12.367Z,3.33
2023-03-12T09:27:41.909Z,2.60
2023-03-12T09:30:12.619Z,3.87
2023-03-12T09:32:40.745Z,2.77
2023-03-12T09:35:11.088Z,2.53
2023-03-12T09:37:39.107Z,4.07
2023-03-12T09:40:08.921Z,4.10
2023-03-12T09:42:42.547Z,2.13
2023-03-12T09:45:18.119Z,2.30
2023-03-12T09:47:50.577Z,4.10
2023-03-12T09:50:26.147Z,2.07
2023-03-12T09:52:59.772Z,4.10
2023-03-12T09:55:30.083Z,3.63
2023-03-12T09:57:59.571Z,3.80
2023-03-12T10:00:31.896Z,3.90
2023-03-12T10:03:16.021Z,2.40
2023-03-12T10:05:48.484Z,2.40
2023-03-12T10:08:29.121Z,3.07
2023-03-12T10:11:07.111Z,3.83
2023-03-12T10:13:48.483Z,3.00
2023-03-12T10:16:33.569Z,5.13
2023-03-12T10:19:14.553Z,2.87
2023-03-12T10:21:53.597Z,2.07
2023-03-12T10:24:37.581Z,3.33
2023-03-12T10:27:13.320Z,2.13
2023-03-12T10:29:45.192Z,1.53
2023-03-12T10:32:18.202Z,2.27
2023-03-12T10:34:48.890Z,2.50
2023-03-12T10:37:23.667Z,3.27
2023-03-12T10:39:52.870Z,3.77
2023-03-12T10:42:24.009Z,1.97
2023-03-12T10:44:54.915Z,3.30
2023-03-12T10:47:37.189Z,2.83
2023-03-12T10:50:15.188Z,2.70
2023-03-12T10:52:45.767Z,3.77
2023-03-12T10:55:21.754Z,3.13
2023-03-12T10:57:50.786Z,3.00
2023-03-12T11:00:22.892Z,3.83
2023-03-12T11:02:59.328Z,4.50
2023-03-12T11:05:30.727Z,4.70
2023-03-12T11:08:02.054Z,2.23
2023-03-12T11:10:43.120Z,4.33
2023-03-12T11:13:28.358Z,2.10
2023-03-12T11:15:58.016Z,2.63
2023-03-12T11:18:36.604Z,2.33
2023-03-12T11:21:17.586Z,2.13
2023-03-12T11:24:07.382Z,2.07
2023-03-12T11:26:40.900Z,3.80
2023-03-12T11:29:18.685Z,4.03
2023-03-12T11:31:56.206Z,1.80
2023-03-12T11:34:28.430Z,5.47
2023-03-12T11:37:05.980Z,5.97
2023-03-12T11:39:57.422Z,2.47
2023-03-12T11:42:39.152Z,2.10
2023-03-12T11:45:15.801Z,3.83
2023-03-12T11:47:57.120Z,3.33
2023-03-12T11:50:37.123Z,3.83
2023-03-12T11:53:24.843Z,1.47
2023-03-12T11:56:01.506Z,2.93
2023-03-12T11:58:55.074Z,4.67
2023-03-12T12:01:32.670Z,2.97
2023-03-12T12:04:38.939Z,2.27
2023-03-12T12:07:16.841Z,3.30
2023-03-12T12:09:52.466Z,5.53
2023-03-12T12:12:36.003Z,2.30
2023-03-12T12:15:16.011Z,2.50
2023-03-12T12:17:57.748Z,2.57
2023-03-12T12:20:39.067Z,3.40
2023-03-12T12:23:17.567Z,2.60
2023-03-12T12:26:05.618Z,5.07
2023-03-12T12:28:58.289Z,1.90
2023-03-12T12:31:33.308Z,6.40
2023-03-12T12:34:39.154Z,1.70
2023-03-12T12:37:22.743Z,2.90
2023-03-12T12:39:57.316Z,2.70
2023-03-12T12:42:30.968Z,1.40
2023-03-12T12:45:04.437Z,4.00
2023-03-12T12:47:41.612Z,3.67
2023-03-12T12:50:17.458Z,1.63
2023-03-12T12:52:47.365Z,2.73
2023-03-12T12:55:20.834Z,3.50
2023-03-12T12:57:54.312Z,3.10
2023-03-12T13:00:44.773Z,1.50
2023-03-12T13:03:17.577Z,7.43
2023-03-12T13:05:54.164Z,2.93
2023-03-12T13:08:51.109Z,2.87
2023-03-12T13:11:41.624Z,3.13
2023-03-12T13:14:38.247Z,3.10
2023-03-12T13:17:34.664Z,1.20
2023-03-12T13:20:16.489Z,4.50
2023-03-12T13:23:06.509Z,1.93
2023-03-12T13:25:51.710Z,2.30
2023-03-12T13:28:36.081Z,4.27
2023-03-12T13:31:05.758Z,4.50
2023-03-12T13:33:46.584Z,5.67
2023-03-12T13:36:25.360Z,1.67
2023-03-12T13:39:00.045Z,3.87
2023-03-12T13:54:20.658Z,7.73
2023-03-12T14:02:45.185Z,2.77
2023-03-12T14:05:16.268Z,3.50
2023-03-12T14:07:59.209Z,2.80
2023-03-12T14:10:33.698Z,2.23
2023-03-12T14:13:07.376Z,2.83
2023-03-12T14:15:50.945Z,2.30
2023-03-12T14:18:22.045Z,2.00
2023-03-12T14:20:54.095Z,2.57
2023-03-12T14:23:23.884Z,2.17
2023-03-12T14:25:55.835Z,2.57
2023-03-12T14:28:25.971Z,2.20
2023-03-12T14:31:00.970Z,4.30
2023-03-12T14:33:35.154Z,3.63
2023-03-12T14:36:07.936Z,4.57
2023-03-12T14:38:40.736Z,4.33
2023-03-12T14:41:16.682Z,2.97
2023-03-12T14:43:46.464Z,3.13
2023-03-12T14:46:17.011Z,11.60
2023-03-12T14:48:48.616Z,6.50
2023-03-12T14:51:24.067Z,5.67
2023-03-12T14:53:52.991Z,3.97
2023-03-12T14:56:29.583Z,5.03
2023-03-12T14:58:59.291Z,3.97
2023-03-12T15:01:30.516Z,6.33
2023-03-12T15:04:01.362Z,21.53
2023-03-12T15:06:32.352Z,20.90
2023-03-12T15:09:04.489Z,8.77
2023-03-12T15:11:35.966Z,6.40
2023-03-12T15:14:07.853Z,2.83
2023-03-12T15:16:36.948Z,6.03
2023-03-12T15:19:05.829Z,6.57
2023-03-12T15:21:35.552Z,4.67
2023-03-12T15:24:05.043Z,4.60
2023-03-12T15:26:38.148Z,5.03
2023-03-12T15:29:26.313Z,5.73
2023-03-12T15:31:56.975Z,3.10
2023-03-12T15:34:32.908Z,6.63
2023-03-12T15:37:03.781Z,3.67
2023-03-12T15:39:33.753Z,5.43
2023-03-12T15:42:09.658Z,4.17
2023-03-12T15:44:46.954Z,7.13
2023-03-12T15:47:17.959Z,4.90
2023-03-12T15:49:52.994Z,3.80
2023-03-12T15:52:31.113Z,4.53
2023-03-12T15:55:06.014Z,5.13
2023-03-12T15:57:45.593Z,6.93
2023-03-12T16:00:24.032Z,3.50
2023-03-12T16:02:55.356Z,4.03
2023-03-12T16:05:26.970Z,4.93
2023-03-12T16:07:55.234Z,4.80
2023-03-12T16:10:26.817Z,5.60
2023-03-12T16:13:01.638Z,9.07
2023-03-12T16:15:33.500Z,28.67
2023-03-12T16:18:01.527Z,14.17
2023-03-12T16:20:30.454Z,24.83
2023-03-12T16:22:58.793Z,37.90
2023-03-12T16:25:27.111Z,90.40
2023-03-12T16:28:01.535Z,65.70
2023-03-12T16:30:31.678Z,25.00
2023-03-12T16:33:02.062Z,32.83
2023-03-12T16:35:31.474Z,22.27
2023-03-12T16:38:00.922Z,25.47
2023-03-12T16:40:33.821Z,38.63
2023-03-12T16:43:06.755Z,65.30
2023-03-12T16:45:37.077Z,41.57
2023-03-12T16:48:07.201Z,47.43
2023-03-12T16:50:35.686Z,47.40
2023-03-12T16:53:05.472Z,41.60
2023-03-12T16:55:45.600Z,56.73
2023-03-12T16:58:17.760Z,47.87
2023-03-12T17:00:47.215Z,38.97
2023-03-12T17:03:20.559Z,45.73
2023-03-12T17:05:48.714Z,23.03
2023-03-12T17:08:17.146Z,18.57
2023-03-12T17:10:45.580Z,32.70
2023-03-12T17:13:23.949Z,37.03
2023-03-12T17:15:53.083Z,21.73
2023-03-12T17:18:21.954Z,24.07
2023-03-12T17:20:51.902Z,26.40
2023-03-12T17:23:20.195Z,115.50
2023-03-12T17:25:48.522Z,68.87
2023-03-12T17:28:16.758Z,92.47
2023-03-12T17:30:47.425Z,90.33
2023-03-12T17:33:17.517Z,55.03
2023-03-12T17:35:45.769Z,123.23
2023-03-12T17:38:14.464Z,117.03
2023-03-12T17:40:44.581Z,85.30
2023-03-12T17:43:12.707Z,52.87
2023-03-12T17:45:41.809Z,87.77
2023-03-12T17:48:11.458Z,128.00
2023-03-12T17:50:39.938Z,97.37
2023-03-12T17:53:08.216Z,102.43
2023-03-12T17:55:36.934Z,67.33
2023-03-12T17:58:06.157Z,90.97
2023-03-12T18:00:35.251Z,92.57
2023-03-12T18:03:03.547Z,90.73
2023-03-12T18:05:33.148Z,86.60
2023-03-12T18:08:01.484Z,99.03
2023-03-12T18:10:29.998Z,80.07
2023-03-12T18:12:58.711Z,75.50
2023-03-12T18:15:27.283Z,61.53
2023-03-12T18:17:56.836Z,74.73
2023-03-12T18:20:36.212Z,69.57
2023-03-12T18:23:07.749Z,80.40
2023-03-12T18:25:35.856Z,77.93
2023-03-12T18:28:04.354Z,72.57
2023-03-12T18:30:33.009Z,67.97
2023-03-12T18:33:01.107Z,63.73
2023-03-12T18:35:30.719Z,69.53
2023-03-12T18:37:59.428Z,59.27
2023-03-12T18:40:29.888Z,48.63
2023-03-12T18:42:59.630Z,43.67
2023-03-12T18:45:30.092Z,40.53
2023-03-12T18:47:58.995Z,42.10
2023-03-12T18:50:34.791Z,43.50
2023-03-12T18:53:06.509Z,36.47
2023-03-12T18:55:36.086Z,36.00
2023-03-12T18:58:04.436Z,37.10
2023-03-12T19:00:32.680Z,45.33
2023-03-12T19:03:00.921Z,44.87
2023-03-12T19:05:29.432Z,65.77
2023-03-12T19:07:57.672Z,79.13
2023-03-12T19:10:26.099Z,160.53
2023-03-12T19:12:55.610Z,69.63
2023-03-12T19:15:25.206Z,59.70
2023-03-12T19:17:54.255Z,67.50
2023-03-12T19:20:23.045Z,61.20
2023-03-12T19:22:51.340Z,57.57
2023-03-12T19:25:20.229Z,60.80
2023-03-12T19:27:48.521Z,59.80
2023-03-12T19:30:18.502Z,57.13
2023-03-12T19:32:47.317Z,66.13
2023-03-12T19:35:16.562Z,97.57
2023-03-12T19:37:44.908Z,79.47
2023-03-12T19:40:14.356Z,94.10
2023-03-12T19:42:42.531Z,71.13
2023-03-12T19:45:12.019Z,66.87
2023-03-12T19:47:41.845Z,76.40
2023-03-12T19:50:11.897Z,63.43
2023-03-12T19:52:39.961Z,62.53
2023-03-12T19:55:09.832Z,55.57
2023-03-12T19:57:37.894Z,48.97
2023-03-12T20:00:09.618Z,53.17
2023-03-12T20:02:38.921Z,41.83
2023-03-12T20:05:09.943Z,45.00
2023-03-12T20:07:38.174Z,43.40
2023-03-12T20:10:09.957Z,39.83
2023-03-12T20:12:38.420Z,37.17
2023-03-12T20:15:09.107Z,40.37
2023-03-12T20:17:37.430Z,51.13
2023-03-12T20:20:09.589Z,49.73
2023-03-12T20:22:37.621Z,58.33
2023-03-12T20:25:06.885Z,56.70
2023-03-12T20:27:35.295Z,42.33
2023-03-12T20:30:04.742Z,44.70
2023-03-12T20:32:33.347Z,46.57
2023-03-12T20:35:03.094Z,45.80
2023-03-12T20:37:32.801Z,42.97
2023-03-12T20:40:00.880Z,44.13
2023-03-12T20:42:28.942Z,50.00
2023-03-12T20:44:56.974Z,44.17
2023-03-12T20:47:25.243Z,41.97
2023-03-12T20:49:53.508Z,50.93
2023-03-12T20:52:21.539Z,41.80
2023-03-12T20:54:51.207Z,47.33
2023-03-12T20:57:19.360Z,51.63
2023-03-12T20:59:47.778Z,43.67
2023-03-12T21:02:16.260Z,50.13
2023-03-12T21:04:44.601Z,43.33
2023-03-12T21:07:12.926Z,49.00
2023-03-12T21:09:41.243Z,60.73
2023-03-12T21:12:10.829Z,58.80
2023-03-12T21:14:40.048Z,45.60
2023-03-12T21:17:13.841Z,43.10
2023-03-12T21:19:42.850Z,52.67
2023-03-12T21:22:11.605Z,47.77
2023-03-12T21:24:40.090Z,61.50
2023-03-12T21:27:11.582Z,52.27
2023-03-12T21:29:41.376Z,52.23
2023-03-12T21:32:09.866Z,46.77
2023-03-12T21:34:38.578Z,51.57
2023-03-12T21:37:07.324Z,47.67
2023-03-12T21:39:36.480Z,70.23
2023-03-12T21:42:05.257Z,32.60
2023-03-12T21:44:35.702Z,54.77
2023-03-12T21:47:05.890Z,39.17
2023-03-12T21:49:35.158Z,149.17
2023-03-12T21:52:03.533Z,159.37
2023-03-12T21:54:37.463Z,70.10
2023-03-12T21:57:06.558Z,121.03
2023-03-12T21:59:35.069Z,78.83
2023-03-12T22:02:04.810Z,57.40
2023-03-12T22:04:33.305Z,159.43
2023-03-12T22:07:01.567Z,112.13
2023-03-12T22:09:29.676Z,62.47
2023-03-12T22:11:58.080Z,195.57
2023-03-12T22:14:26.980Z,99.97
2023-03-12T22:16:56.014Z,53.00
2023-03-12T22:19:25.801Z,71.10
2023-03-12T22:21:54.583Z,94.73
2023-03-12T22:24:22.963Z,48.57
2023-03-12T22:26:52.122Z,68.97
2023-03-12T22:29:20.674Z,65.23
2023-03-12T22:31:50.248Z,60.17
2023-03-12T22:34:18.302Z,40.37
2023-03-12T22:36:47.819Z,42.10
2023-03-12T22:39:17.475Z,149.63
2023-03-12T22:41:45.575Z,157.37
2023-03-12T22:44:15.649Z,40.70
2023-03-12T22:46:44.181Z,45.77
2023-03-12T22:49:12.907Z,28.60
2023-03-12T22:51:41.395Z,55.63
2023-03-12T22:54:11.412Z,123.17
2023-03-12T22:56:40.085Z,51.63
2023-03-12T22:59:08.481Z,52.13
2023-03-12T23:01:37.088Z,58.27
2023-03-12T23:04:06.443Z,65.07
2023-03-12T23:06:34.987Z,61.77
2023-03-12T23:09:03.661Z,61.27
2023-03-12T23:11:33.868Z,123.37
2023-03-12T23:14:03.082Z,157.83
2023-03-12T23:16:31.744Z,153.60
2023-03-12T23:19:00.909Z,123.53
2023-03-12T23:21:29.337Z,115.23
2023-03-12T23:23:57.517Z,103.77
2023-03-12T23:26:27.618Z,30.47
2023-03-12T23:28:58.032Z,47.73
2023-03-12T23:31:27.744Z,30.57
2023-03-12T23:33:56.751Z,32.70
2023-03-12T23:36:25.280Z,28.77
2023-03-12T23:38:53.305Z,36.63
2023-03-12T23:41:22.939Z,70.30
2023-03-12T23:43:51.693Z,37.77
2023-03-12T23:46:21.784Z,39.50
2023-03-12T23:48:50.724Z,31.37
2023-03-12T23:51:20.430Z,44.83
2023-03-12T23:53:50.006Z,58.80
2023-03-12T23:56:19.911Z,33.37
2023-03-12T23:58:48.601Z,37.80
